createdAt,value
2016-12-09T00:00:25.922Z,5.22
2016-12-09T00:01:34.613Z,5.25
2016-12-09T00:02:43.307Z,5.26
2016-12-09T00:03:51.995Z,5.33
2016-12-09T00:05:00.687Z,5.41
2016-12-09T00:06:09.383Z,5.43
2016-12-09T00:07:18.070Z,5.54
2016-12-09T00:08:26.760Z,5.54
2016-12-09T00:09:35.450Z,5.59
2016-12-09T00:10:44.137Z,5.62
2016-12-09T00:11:52.831Z,5.7
2016-12-09T00:13:01.524Z,5.77
2016-12-09T00:14:10.211Z,5.76
2016-12-09T00:15:18.893Z,5.79
2016-12-09T00:16:27.577Z,5.8
2016-12-09T00:17:36.277Z,5.72
2016-12-09T00:18:44.960Z,5.74
2016-12-09T00:19:53.646Z,5.67
2016-12-09T00:21:02.333Z,5.62
2016-12-09T00:22:11.024Z,5.64
2016-12-09T00:23:19.718Z,5.72
2016-12-09T00:24:28.406Z,5.65
2016-12-09T00:25:37.097Z,5.67
2016-12-09T00:26:45.790Z,5.59
2016-12-09T00:27:54.508Z,5.67
2016-12-09T00:29:03.193Z,5.64
2016-12-09T00:30:11.882Z,5.83
2016-12-09T00:31:20.566Z,5.8
2016-12-09T00:32:29.256Z,5.81
2016-12-09T00:33:37.947Z,5.81
2016-12-09T00:34:46.639Z,5.77
2016-12-09T00:35:55.331Z,5.65
2016-12-09T00:37:04.024Z,5.64
2016-12-09T00:38:12.713Z,5.69
2016-12-09T00:39:21.399Z,5.54
2016-12-09T00:40:30.089Z,5.52
2016-12-09T00:41:39.104Z,5.54
2016-12-09T00:42:47.792Z,5.61
2016-12-09T00:43:56.481Z,5.67
2016-12-09T00:45:05.169Z,5.69
2016-12-09T00:46:13.859Z,5.67
2016-12-09T00:47:22.555Z,5.67
2016-12-09T00:48:31.246Z,5.61
2016-12-09T00:49:39.938Z,5.67
2016-12-09T00:50:48.631Z,5.7
2016-12-09T00:51:57.318Z,5.81
2016-12-09T00:53:06.324Z,5.84
2016-12-09T00:54:15.009Z,6.01
2016-12-09T00:55:23.697Z,5.99
2016-12-09T00:56:32.386Z,6.1
2016-12-09T00:57:41.078Z,6.26
2016-12-09T00:58:49.765Z,6.29
2016-12-09T00:59:58.451Z,6.26
2016-12-09T01:01:07.142Z,6.39
2016-12-09T01:02:15.828Z,6.34
2016-12-09T01:03:24.522Z,6.38
2016-12-09T01:04:33.536Z,6.26
2016-12-09T01:05:42.228Z,6.28
2016-12-09T01:06:50.913Z,6.15
2016-12-09T01:07:59.615Z,6.25
2016-12-09T01:09:08.618Z,6.25
2016-12-09T01:10:17.311Z,6.17
2016-12-09T01:11:26.010Z,6.12
2016-12-09T01:12:34.702Z,6.09
2016-12-09T01:13:43.396Z,6.01
2016-12-09T01:14:52.087Z,6.12
2016-12-09T01:16:00.771Z,6.15
2016-12-09T01:17:09.462Z,6.12
2016-12-09T01:18:18.156Z,6.15
2016-12-09T01:19:26.851Z,6.07
2016-12-09T01:20:35.555Z,6.15
2016-12-09T01:21:44.244Z,6.26
2016-12-09T01:22:52.937Z,6.12
2016-12-09T01:24:01.633Z,6.1
2016-12-09T01:25:10.318Z,6.02
2016-12-09T01:26:19.038Z,6.15
2016-12-09T01:27:27.726Z,6.16
2016-12-09T01:28:36.417Z,5.98
2016-12-09T01:29:45.107Z,6.07
2016-12-09T01:30:53.802Z,5.99
2016-12-09T01:32:02.806Z,5.98
2016-12-09T01:33:11.495Z,5.94
2016-12-09T01:34:20.184Z,5.95
2016-12-09T01:35:28.876Z,6.01
2016-12-09T01:36:37.570Z,6.02
2016-12-09T01:37:46.254Z,6.12
2016-12-09T01:38:54.962Z,6.13
2016-12-09T01:40:03.658Z,6.13
2016-12-09T01:41:12.345Z,6.05
2016-12-09T01:42:21.037Z,6.06
2016-12-09T01:43:29.731Z,5.87
2016-12-09T01:44:38.422Z,5.81
2016-12-09T01:45:47.111Z,5.87
2016-12-09T01:46:55.801Z,5.84
2016-12-09T01:48:04.494Z,5.91
2016-12-09T01:49:13.183Z,5.87
2016-12-09T01:50:21.874Z,5.76
2016-12-09T01:51:30.570Z,5.8
2016-12-09T01:52:39.261Z,5.76
2016-12-09T01:53:47.972Z,5.81
2016-12-09T01:54:56.658Z,5.81
2016-12-09T01:56:05.363Z,5.91
2016-12-09T01:57:14.058Z,5.84
2016-12-09T01:58:22.744Z,5.87
2016-12-09T01:59:31.432Z,5.88
2016-12-09T02:00:40.122Z,5.95
2016-12-09T02:01:48.810Z,5.94
2016-12-09T02:02:57.496Z,5.84
2016-12-09T02:04:06.188Z,5.84
2016-12-09T02:05:14.883Z,5.84
2016-12-09T02:06:23.569Z,5.81
2016-12-09T02:07:32.256Z,5.87
2016-12-09T02:08:40.947Z,5.76
2016-12-09T02:09:49.640Z,5.77
2016-12-09T02:10:58.327Z,5.77
2016-12-09T02:12:07.022Z,5.83
2016-12-09T02:13:15.716Z,5.81
2016-12-09T02:14:24.421Z,5.83
2016-12-09T02:15:33.109Z,5.74
2016-12-09T02:16:41.803Z,5.81
2016-12-09T02:17:50.495Z,5.72
2016-12-09T02:18:59.181Z,5.7
2016-12-09T02:20:07.876Z,5.62
2016-12-09T02:21:16.569Z,5.64
2016-12-09T02:22:25.258Z,5.58
2016-12-09T02:23:33.948Z,5.55
2016-12-09T02:24:42.672Z,5.72
2016-12-09T02:25:51.361Z,5.74
2016-12-09T02:27:00.046Z,5.72
2016-12-09T02:28:08.736Z,5.76
2016-12-09T02:29:17.433Z,5.74
2016-12-09T02:30:26.126Z,5.72
2016-12-09T02:31:34.823Z,5.83
2016-12-09T02:32:43.506Z,5.88
2016-12-09T02:33:52.200Z,5.87
2016-12-09T02:35:00.896Z,5.97
2016-12-09T02:36:09.587Z,5.98
2016-12-09T02:37:18.277Z,6.16
2016-12-09T02:38:26.961Z,6.2
2016-12-09T02:39:35.654Z,6.26
2016-12-09T02:40:44.347Z,6.19
2016-12-09T02:41:53.040Z,6.29
2016-12-09T02:43:01.730Z,6.2
2016-12-09T02:44:10.420Z,6.26
2016-12-09T02:45:19.108Z,6.2
2016-12-09T02:46:27.793Z,6.13
2016-12-09T02:47:36.481Z,6.41
2016-12-09T02:48:45.171Z,6.52
2016-12-09T02:49:53.857Z,6.47
2016-12-09T02:51:02.548Z,6.54
2016-12-09T02:52:11.239Z,6.5
2016-12-09T02:53:19.929Z,6.5
2016-12-09T02:54:28.619Z,6.49
2016-12-09T02:55:37.307Z,6.44
2016-12-09T02:56:45.998Z,6.46
2016-12-09T02:57:54.687Z,6.39
2016-12-09T02:59:03.372Z,6.49
2016-12-09T03:00:12.069Z,6.46
2016-12-09T03:01:20.765Z,6.53
2016-12-09T03:02:29.450Z,6.59
2016-12-09T03:03:38.136Z,6.65
2016-12-09T03:04:46.822Z,6.52
2016-12-09T03:05:55.514Z,6.53
2016-12-09T03:07:04.204Z,6.57
2016-12-09T03:08:12.895Z,6.52
2016-12-09T03:09:21.587Z,6.54
2016-12-09T03:10:30.280Z,6.56
2016-12-09T03:11:38.974Z,6.7
2016-12-09T03:12:47.666Z,6.56
2016-12-09T03:13:56.363Z,6.56
2016-12-09T03:15:05.058Z,6.67
2016-12-09T03:16:13.744Z,6.7
2016-12-09T03:17:22.432Z,6.71
2016-12-09T03:18:31.125Z,6.72
2016-12-09T03:19:40.132Z,6.77
2016-12-09T03:20:48.822Z,6.78
2016-12-09T03:21:57.824Z,6.85
2016-12-09T03:23:06.526Z,6.77
2016-12-09T03:24:15.227Z,6.82
2016-12-09T03:25:23.915Z,6.77
2016-12-09T03:26:32.608Z,6.87
2016-12-09T03:27:41.298Z,6.77
2016-12-09T03:28:49.991Z,6.89
2016-12-09T03:29:58.682Z,6.93
2016-12-09T03:31:07.381Z,6.89
2016-12-09T03:32:16.074Z,6.78
2016-12-09T03:33:24.797Z,6.85
2016-12-09T03:34:33.485Z,6.87
2016-12-09T03:35:42.204Z,6.8
2016-12-09T03:36:50.894Z,6.82
2016-12-09T03:37:59.586Z,6.75
2016-12-09T03:39:08.276Z,6.67
2016-12-09T03:40:16.965Z,6.72
2016-12-09T03:41:25.659Z,6.54
2016-12-09T03:42:34.346Z,6.54
2016-12-09T03:43:43.036Z,6.59
2016-12-09T03:44:51.724Z,6.62
2016-12-09T03:46:00.448Z,6.64
2016-12-09T03:47:09.142Z,6.65
2016-12-09T03:48:17.831Z,6.54
2016-12-09T03:49:26.520Z,6.62
2016-12-09T03:50:35.262Z,6.7
2016-12-09T03:51:43.947Z,6.75
2016-12-09T03:52:52.635Z,6.93
2016-12-09T03:54:01.324Z,6.92
2016-12-09T03:55:10.013Z,6.92
2016-12-09T03:56:18.733Z,6.87
2016-12-09T03:57:27.423Z,6.83
2016-12-09T03:58:36.113Z,6.87
2016-12-09T03:59:44.806Z,6.9
2016-12-09T04:00:53.498Z,6.97
2016-12-09T04:02:02.195Z,6.86
2016-12-09T04:03:10.893Z,6.87
2016-12-09T04:04:19.581Z,6.93
2016-12-09T04:05:28.271Z,7.01
2016-12-09T04:06:36.965Z,7.05
2016-12-09T04:07:45.836Z,7.03
2016-12-09T04:08:54.528Z,6.96
2016-12-09T04:10:03.226Z,6.87
2016-12-09T04:11:11.914Z,6.78
2016-12-09T04:12:20.607Z,6.75
2016-12-09T04:13:29.294Z,6.77
2016-12-09T04:14:37.988Z,6.71
2016-12-09T04:15:46.684Z,6.78
2016-12-09T04:16:55.375Z,6.82
2016-12-09T04:18:04.070Z,6.83
2016-12-09T04:19:12.760Z,6.82
2016-12-09T04:20:21.447Z,6.89
2016-12-09T04:21:30.130Z,6.95
2016-12-09T04:22:38.821Z,6.96
2016-12-09T04:23:47.514Z,6.95
2016-12-09T04:24:56.199Z,7.04
2016-12-09T04:26:04.892Z,7.07
2016-12-09T04:27:13.584Z,7.03
2016-12-09T04:28:22.280Z,7.04
2016-12-09T04:29:30.974Z,6.92
2016-12-09T04:30:39.665Z,7.03
2016-12-09T04:31:48.357Z,7.01
2016-12-09T04:32:57.045Z,6.96
2016-12-09T04:34:05.742Z,6.82
2016-12-09T04:35:14.746Z,6.62
2016-12-09T04:36:23.447Z,6.71
2016-12-09T04:37:32.134Z,6.68
2016-12-09T04:38:40.826Z,6.52
2016-12-09T04:39:49.516Z,6.47
2016-12-09T04:40:58.210Z,6.43
2016-12-09T04:42:06.915Z,6.32
2016-12-09T04:43:15.609Z,6.15
2016-12-09T04:44:24.304Z,5.99
2016-12-09T04:45:32.993Z,5.87
2016-12-09T04:46:41.684Z,5.87
2016-12-09T04:47:50.373Z,5.87
2016-12-09T04:48:59.063Z,5.9
2016-12-09T04:50:07.755Z,5.8
2016-12-09T04:51:16.466Z,5.9
2016-12-09T04:52:25.154Z,5.91
2016-12-09T04:53:33.851Z,5.83
2016-12-09T04:54:42.566Z,5.81
2016-12-09T04:55:51.258Z,5.81
2016-12-09T04:56:59.949Z,5.72
2016-12-09T04:58:08.637Z,5.69
2016-12-09T04:59:17.326Z,5.54
2016-12-09T05:00:26.018Z,5.54
2016-12-09T05:01:34.714Z,5.51
2016-12-09T05:02:43.720Z,5.46
2016-12-09T05:03:52.413Z,5.44
2016-12-09T05:05:01.102Z,5.49
2016-12-09T05:06:09.789Z,5.46
2016-12-09T05:07:18.479Z,5.38
2016-12-09T05:08:27.166Z,5.4
2016-12-09T05:09:35.860Z,5.34
2016-12-09T05:10:44.552Z,5.34
2016-12-09T05:11:53.237Z,5.34
2016-12-09T05:13:01.930Z,5.29
2016-12-09T05:14:10.618Z,5.31
2016-12-09T05:15:19.306Z,5.28
2016-12-09T05:16:27.996Z,5.23
2016-12-09T05:17:36.686Z,5.22
2016-12-09T05:18:45.376Z,5.26
2016-12-09T05:19:54.102Z,5.19
2016-12-09T05:21:02.791Z,5.22
2016-12-09T05:22:11.482Z,5.19
2016-12-09T05:23:20.175Z,5.19
2016-12-09T05:24:28.894Z,5.23
2016-12-09T05:25:37.579Z,5.2
2016-12-09T05:26:46.268Z,5.23
2016-12-09T05:27:54.964Z,5.18
2016-12-09T05:29:03.653Z,5.19
2016-12-09T05:30:12.344Z,5.08
2016-12-09T05:31:21.034Z,5.19
2016-12-09T05:32:29.722Z,5.2
2016-12-09T05:33:38.409Z,5.23
2016-12-09T05:34:47.098Z,5.13
2016-12-09T05:35:56.103Z,5.1
2016-12-09T05:37:05.105Z,5.13
2016-12-09T05:38:13.798Z,5.19
2016-12-09T05:39:22.485Z,5.19
2016-12-09T05:40:31.171Z,5.23
2016-12-09T05:41:39.856Z,5.26
2016-12-09T05:42:48.545Z,5.29
2016-12-09T05:43:57.234Z,5.25
2016-12-09T05:45:05.936Z,5.18
2016-12-09T05:46:14.622Z,5.22
2016-12-09T05:47:23.313Z,5.18
2016-12-09T05:48:32.001Z,5.15
2016-12-09T05:49:40.693Z,5.13
2016-12-09T05:50:49.381Z,5.1
2016-12-09T05:51:58.096Z,5.07
2016-12-09T05:53:06.784Z,5.12
2016-12-09T05:54:15.469Z,5.2
2016-12-09T05:55:24.158Z,5.07
2016-12-09T05:56:32.845Z,5.1
2016-12-09T05:57:41.533Z,5.04
2016-12-09T05:58:50.224Z,5.01
2016-12-09T05:59:58.908Z,5.08
2016-12-09T06:01:07.597Z,5.05
2016-12-09T06:02:16.286Z,5.12
2016-12-09T06:03:24.974Z,5.08
2016-12-09T06:04:33.668Z,5.02
2016-12-09T06:05:42.359Z,5.01
2016-12-09T06:06:51.051Z,4.98
2016-12-09T06:07:59.735Z,5.01
2016-12-09T06:09:08.748Z,5
2016-12-09T06:10:17.435Z,5.02
2016-12-09T06:11:26.121Z,5
2016-12-09T06:12:34.809Z,5.05
2016-12-09T06:13:43.497Z,5.04
2016-12-09T06:14:52.190Z,5
2016-12-09T06:16:00.884Z,4.97
2016-12-09T06:17:09.577Z,4.83
2016-12-09T06:18:18.261Z,4.79
2016-12-09T06:19:27.049Z,4.75
2016-12-09T06:20:35.735Z,4.67
2016-12-09T06:21:44.431Z,4.74
2016-12-09T06:22:53.118Z,4.71
2016-12-09T06:24:01.810Z,4.58
2016-12-09T06:25:10.497Z,4.61
2016-12-09T06:26:19.183Z,4.52
2016-12-09T06:27:27.873Z,4.4
2016-12-09T06:28:36.587Z,4.52
2016-12-09T06:29:45.270Z,4.43
2016-12-09T06:30:53.957Z,4.34
2016-12-09T06:32:02.649Z,4.3
2016-12-09T06:33:11.358Z,4.38
2016-12-09T06:34:20.048Z,4.45
2016-12-09T06:35:28.750Z,4.42
2016-12-09T06:36:37.437Z,4.48
2016-12-09T06:37:46.125Z,4.52
2016-12-09T06:38:54.815Z,4.61
2016-12-09T06:40:03.506Z,4.61
2016-12-09T06:41:12.512Z,4.66
2016-12-09T06:42:21.199Z,4.64
2016-12-09T06:43:30.201Z,4.64
2016-12-09T06:44:38.887Z,4.68
2016-12-09T06:45:47.769Z,4.76
2016-12-09T06:46:56.460Z,4.76
2016-12-09T06:48:05.156Z,4.86
2016-12-09T06:49:13.849Z,4.84
2016-12-09T06:50:22.542Z,4.83
2016-12-09T06:51:31.553Z,4.82
2016-12-09T06:52:40.238Z,4.74
2016-12-09T06:53:48.931Z,4.78
2016-12-09T06:54:57.622Z,4.71
2016-12-09T06:56:06.418Z,4.78
2016-12-09T06:57:15.242Z,4.76
2016-12-09T06:58:23.944Z,4.79
2016-12-09T06:59:32.637Z,4.83
2016-12-09T07:00:41.323Z,4.86
2016-12-09T07:01:50.035Z,4.86
2016-12-09T07:02:58.720Z,4.84
2016-12-09T07:04:07.410Z,4.76
2016-12-09T07:05:16.098Z,4.68
2016-12-09T07:06:24.787Z,4.78
2016-12-09T07:07:33.794Z,4.84
2016-12-09T07:08:42.486Z,4.82
2016-12-09T07:09:51.171Z,4.79
2016-12-09T07:10:59.858Z,4.78
2016-12-09T07:12:08.645Z,4.94
2016-12-09T07:13:17.336Z,4.95
2016-12-09T07:14:26.021Z,4.95
2016-12-09T07:15:34.704Z,4.92
2016-12-09T07:16:43.395Z,4.95
2016-12-09T07:17:52.086Z,4.94
2016-12-09T07:19:00.772Z,5.01
2016-12-09T07:20:09.784Z,5.05
2016-12-09T07:21:18.469Z,5.07
2016-12-09T07:22:27.167Z,4.95
2016-12-09T07:23:35.856Z,4.98
2016-12-09T07:24:44.550Z,4.95
2016-12-09T07:25:53.241Z,4.97
2016-12-09T07:27:01.927Z,4.86
2016-12-09T07:28:10.624Z,4.84
2016-12-09T07:29:19.312Z,4.78
2016-12-09T07:30:27.999Z,4.79
2016-12-09T07:31:36.690Z,4.78
2016-12-09T07:32:45.384Z,4.75
2016-12-09T07:33:54.078Z,4.82
2016-12-09T07:35:02.764Z,4.78
2016-12-09T07:36:11.473Z,4.92
2016-12-09T07:37:20.477Z,4.95
2016-12-09T07:38:29.159Z,4.94
2016-12-09T07:39:37.857Z,5.04
2016-12-09T07:40:46.545Z,4.97
2016-12-09T07:41:55.233Z,5.02
2016-12-09T07:43:03.924Z,5.02
2016-12-09T07:44:12.619Z,5.08
2016-12-09T07:45:21.310Z,5
2016-12-09T07:46:29.998Z,4.97
2016-12-09T07:47:38.690Z,4.92
2016-12-09T07:48:47.382Z,4.97
2016-12-09T07:49:56.073Z,5
2016-12-09T07:51:04.760Z,5.02
2016-12-09T07:52:13.461Z,5.04
2016-12-09T07:53:22.140Z,5.01
2016-12-09T07:54:30.828Z,5.01
2016-12-09T07:55:39.539Z,4.94
2016-12-09T07:56:48.226Z,4.98
2016-12-09T07:57:56.914Z,4.94
2016-12-09T07:59:05.605Z,4.97
2016-12-09T08:00:14.291Z,4.92
2016-12-09T08:01:23.002Z,4.98
2016-12-09T08:02:31.687Z,5
2016-12-09T08:03:40.373Z,4.98
2016-12-09T08:04:49.064Z,4.95
2016-12-09T08:05:57.752Z,4.94
2016-12-09T08:07:06.446Z,4.95
2016-12-09T08:08:15.140Z,4.9
2016-12-09T08:09:23.826Z,4.95
2016-12-09T08:10:32.516Z,4.94
2016-12-09T08:11:41.205Z,4.94
2016-12-09T08:12:49.896Z,4.95
2016-12-09T08:13:58.588Z,4.97
2016-12-09T08:15:07.284Z,5.01
2016-12-09T08:16:15.969Z,5.04
2016-12-09T08:17:24.661Z,4.92
2016-12-09T08:18:33.344Z,4.87
2016-12-09T08:19:42.035Z,4.89
2016-12-09T08:20:50.718Z,4.83
2016-12-09T08:21:59.406Z,4.79
2016-12-09T08:23:08.092Z,4.7
2016-12-09T08:24:16.801Z,4.61
2016-12-09T08:25:25.488Z,4.68
2016-12-09T08:26:34.176Z,4.83
2016-12-09T08:27:42.872Z,4.95
2016-12-09T08:28:51.564Z,5.04
2016-12-09T08:30:00.254Z,5.19
2016-12-09T08:31:08.942Z,5.26
2016-12-09T08:32:17.627Z,5.47
2016-12-09T08:33:26.310Z,5.49
2016-12-09T08:34:35.000Z,5.46
2016-12-09T08:35:43.699Z,5.46
2016-12-09T08:36:52.389Z,5.49
2016-12-09T08:38:01.087Z,5.36
2016-12-09T08:39:09.788Z,5.36
2016-12-09T08:40:18.477Z,5.37
2016-12-09T08:41:27.164Z,5.46
2016-12-09T08:42:35.850Z,5.29
2016-12-09T08:43:44.539Z,5.19
2016-12-09T08:44:53.231Z,5.28
2016-12-09T08:46:01.924Z,5.22
2016-12-09T08:47:10.613Z,5.16
2016-12-09T08:48:19.299Z,5.13
2016-12-09T08:49:27.986Z,5.2
2016-12-09T08:50:36.679Z,5.13
2016-12-09T08:51:45.369Z,5.1
2016-12-09T08:52:54.057Z,4.97
2016-12-09T08:54:02.793Z,5.01
2016-12-09T08:55:11.490Z,5.01
2016-12-09T08:56:20.177Z,5.01
2016-12-09T08:57:28.864Z,5
2016-12-09T08:58:37.562Z,4.98
2016-12-09T08:59:46.356Z,5
2016-12-09T09:00:55.041Z,5.05
2016-12-09T09:02:03.730Z,5.08
2016-12-09T09:03:12.422Z,5.02
2016-12-09T09:04:21.115Z,5.16
2016-12-09T09:05:29.896Z,5.01
2016-12-09T09:06:38.589Z,5.15
2016-12-09T09:07:47.276Z,5.16
2016-12-09T09:08:55.965Z,5.07
2016-12-09T09:10:04.655Z,5.16
2016-12-09T09:11:13.405Z,5.12
2016-12-09T09:12:22.099Z,5.12
2016-12-09T09:13:30.784Z,5.22
2016-12-09T09:14:39.474Z,5.16
2016-12-09T09:15:48.164Z,5.26
2016-12-09T09:16:56.901Z,5.23
2016-12-09T09:18:05.588Z,5.2
2016-12-09T09:19:14.281Z,5.25
2016-12-09T09:20:22.969Z,5.23
2016-12-09T09:21:31.667Z,5.19
2016-12-09T09:22:40.667Z,5.2
2016-12-09T09:23:49.358Z,5.23
2016-12-09T09:24:58.050Z,5.25
2016-12-09T09:26:06.741Z,5.26
2016-12-09T09:27:15.431Z,5.23
2016-12-09T09:28:24.119Z,5.34
2016-12-09T09:29:32.807Z,5.44
2016-12-09T09:30:41.499Z,5.29
2016-12-09T09:31:50.189Z,5.76
2016-12-09T09:32:58.877Z,6.62
2016-12-09T09:34:07.880Z,9
2016-12-09T09:35:16.567Z,9.97
2016-12-09T09:36:25.568Z,11.58
2016-12-09T09:37:34.259Z,11.52
2016-12-09T09:38:42.946Z,10.87
2016-12-09T09:39:51.638Z,9.29
2016-12-09T09:41:00.328Z,8.81
2016-12-09T09:42:09.019Z,8.72
2016-12-09T09:43:17.703Z,8.42
2016-12-09T09:44:26.723Z,8.03
2016-12-09T09:45:35.410Z,7.88
2016-12-09T09:46:44.134Z,7.72
2016-12-09T09:47:52.820Z,7.39
2016-12-09T09:49:01.509Z,7.15
2016-12-09T09:50:10.198Z,6.95
2016-12-09T09:51:18.886Z,6.8
2016-12-09T09:52:27.574Z,6.7
2016-12-09T09:53:36.262Z,6.52
2016-12-09T09:54:44.952Z,6.5
2016-12-09T09:55:53.646Z,6.34
2016-12-09T09:57:02.336Z,6.35
2016-12-09T09:58:11.027Z,6.32
2016-12-09T09:59:19.727Z,6.36
2016-12-09T10:00:28.420Z,6.26
2016-12-09T10:01:37.106Z,6.28
2016-12-09T10:02:45.837Z,6.22
2016-12-09T10:03:54.531Z,6.26
2016-12-09T10:05:03.224Z,6.16
2016-12-09T10:06:11.917Z,6.17
2016-12-09T10:07:20.619Z,6.1
2016-12-09T10:08:29.368Z,6.13
2016-12-09T10:09:38.057Z,6.15
2016-12-09T10:10:46.744Z,6.15
2016-12-09T10:11:55.442Z,6.06
2016-12-09T10:13:04.444Z,6.06
2016-12-09T10:14:13.139Z,6.13
2016-12-09T10:15:21.834Z,6.25
2016-12-09T10:16:30.520Z,6.12
2016-12-09T10:17:39.219Z,6.34
2016-12-09T10:18:47.906Z,6.35
2016-12-09T10:19:56.594Z,6.31
2016-12-09T10:21:05.913Z,6.34
2016-12-09T10:22:14.601Z,6.34
2016-12-09T10:23:23.294Z,6.36
2016-12-09T10:24:31.985Z,6.32
2016-12-09T10:25:40.675Z,6.35
2016-12-09T10:26:49.372Z,6.38
2016-12-09T10:27:58.072Z,6.35
2016-12-09T10:29:06.763Z,6.53
2016-12-09T10:30:15.451Z,6.59
2016-12-09T10:31:24.144Z,6.74
2016-12-09T10:32:32.833Z,6.93
2016-12-09T10:33:41.526Z,7.04
2016-12-09T10:34:50.217Z,7.26
2016-12-09T10:35:58.904Z,7.5
2016-12-09T10:37:07.592Z,7.69
2016-12-09T10:38:16.292Z,7.81
2016-12-09T10:39:24.978Z,8.02
2016-12-09T10:40:33.992Z,8.08
2016-12-09T10:41:42.682Z,8.18
2016-12-09T10:42:51.377Z,8.31
2016-12-09T10:44:00.068Z,8.21
2016-12-09T10:45:08.773Z,8.24
2016-12-09T10:46:17.465Z,8.08
2016-12-09T10:47:26.169Z,7.9
2016-12-09T10:48:34.858Z,7.88
2016-12-09T10:49:43.549Z,7.91
2016-12-09T10:50:52.241Z,7.74
2016-12-09T10:52:00.939Z,7.85
2016-12-09T10:53:09.631Z,7.84
2016-12-09T10:54:18.329Z,7.72
2016-12-09T10:55:27.019Z,7.59
2016-12-09T10:56:35.713Z,7.58
2016-12-09T10:57:44.399Z,7.61
2016-12-09T10:58:53.091Z,7.53
2016-12-09T11:00:01.783Z,7.5
2016-12-09T11:01:10.478Z,7.48
2016-12-09T11:02:19.163Z,7.48
2016-12-09T11:03:27.853Z,7.55
2016-12-09T11:04:36.555Z,7.62
2016-12-09T11:05:45.556Z,7.64
2016-12-09T11:06:54.254Z,7.62
2016-12-09T11:08:02.948Z,7.55
2016-12-09T11:09:11.641Z,7.72
2016-12-09T11:10:20.332Z,7.83
2016-12-09T11:11:29.020Z,7.93
2016-12-09T11:12:37.716Z,8.03
2016-12-09T11:13:46.424Z,8.14
2016-12-09T11:14:55.128Z,8.21
2016-12-09T11:16:03.829Z,8.23
2016-12-09T11:17:12.833Z,8.39
2016-12-09T11:18:21.520Z,8.54
2016-12-09T11:19:30.209Z,8.64
2016-12-09T11:20:38.906Z,8.72
2016-12-09T11:21:47.931Z,8.77
2016-12-09T11:22:56.621Z,8.82
2016-12-09T11:24:05.324Z,8.93
2016-12-09T11:25:14.014Z,8.99
2016-12-09T11:26:22.708Z,9.03
2016-12-09T11:27:31.714Z,8.95
2016-12-09T11:28:40.410Z,8.96
2016-12-09T11:29:49.101Z,8.87
2016-12-09T11:30:57.793Z,8.93
2016-12-09T11:32:06.497Z,8.9
2016-12-09T11:33:15.191Z,8.9
2016-12-09T11:34:23.881Z,8.78
2016-12-09T11:35:32.600Z,8.75
2016-12-09T11:36:41.291Z,8.75
2016-12-09T11:37:49.984Z,8.68
2016-12-09T11:38:59.012Z,8.69
2016-12-09T11:40:07.704Z,8.53
2016-12-09T11:41:16.396Z,8.57
2016-12-09T11:42:25.090Z,8.56
2016-12-09T11:43:33.780Z,8.45
2016-12-09T11:44:42.476Z,8.44
2016-12-09T11:45:51.169Z,8.27
2016-12-09T11:46:59.864Z,8.26
2016-12-09T11:48:08.557Z,8.2
2016-12-09T11:49:17.248Z,7.28
2016-12-09T11:50:25.941Z,7.11
2016-12-09T11:51:34.633Z,7.05
2016-12-09T11:52:43.329Z,6.92
2016-12-09T11:53:52.029Z,6.77
2016-12-09T11:55:00.727Z,6.82
2016-12-09T11:56:09.430Z,6.64
2016-12-09T11:57:18.119Z,6.56
2016-12-09T11:58:26.809Z,6.72
2016-12-09T11:59:35.499Z,6.74
2016-12-09T12:00:44.198Z,6.9
2016-12-09T12:01:52.885Z,6.96
2016-12-09T12:03:01.578Z,7.13
2016-12-09T12:04:10.277Z,7.21
2016-12-09T12:05:18.973Z,7.32
2016-12-09T12:06:27.663Z,7.41
2016-12-09T12:07:36.353Z,7.51
2016-12-09T12:08:45.048Z,7.58
2016-12-09T12:09:53.741Z,7.69
2016-12-09T12:11:02.434Z,7.66
2016-12-09T12:12:11.135Z,7.67
2016-12-09T12:13:19.842Z,7.77
2016-12-09T12:14:28.532Z,7.7
2016-12-09T12:15:37.228Z,7.8
2016-12-09T12:16:45.921Z,7.81
2016-12-09T12:17:54.612Z,7.7
2016-12-09T12:19:03.299Z,7.69
2016-12-09T12:20:11.993Z,7.62
2016-12-09T12:21:20.686Z,7.59
2016-12-09T12:22:29.380Z,7.48
2016-12-09T12:23:38.076Z,7.5
2016-12-09T12:24:46.766Z,7.48
2016-12-09T12:25:55.496Z,7.39
2016-12-09T12:27:04.189Z,7.43
2016-12-09T12:28:12.883Z,7.4
2016-12-09T12:29:21.576Z,7.4
2016-12-09T12:30:30.270Z,7.37
2016-12-09T12:31:38.958Z,7.43
2016-12-09T12:32:47.653Z,7.4
2016-12-09T12:33:56.379Z,7.4
2016-12-09T12:35:05.070Z,7.36
2016-12-09T12:36:13.766Z,7.41
2016-12-09T12:37:22.457Z,7.29
2016-12-09T12:38:31.461Z,7.29
2016-12-09T12:39:40.154Z,7.31
2016-12-09T12:40:48.848Z,7.31
2016-12-09T12:41:57.538Z,7.25
2016-12-09T12:43:06.227Z,7.32
2016-12-09T12:44:14.922Z,7.26
2016-12-09T12:45:23.616Z,7.26
2016-12-09T12:46:32.310Z,7.41
2016-12-09T12:47:41.032Z,7.43
2016-12-09T12:48:49.726Z,7.36
2016-12-09T12:49:58.416Z,7.46
2016-12-09T12:51:07.141Z,7.61
2016-12-09T12:52:15.828Z,7.61
2016-12-09T12:53:24.515Z,7.66
2016-12-09T12:54:33.208Z,7.72
2016-12-09T12:55:41.903Z,7.8
2016-12-09T12:56:50.592Z,7.83
2016-12-09T12:57:59.287Z,7.75
2016-12-09T12:59:07.986Z,7.8
2016-12-09T13:00:16.674Z,7.77
2016-12-09T13:01:25.368Z,7.77
2016-12-09T13:02:34.095Z,7.9
2016-12-09T13:03:42.786Z,7.91
2016-12-09T13:04:51.511Z,7.9
2016-12-09T13:06:00.205Z,7.93
2016-12-09T13:07:08.892Z,7.88
2016-12-09T13:08:17.898Z,7.87
2016-12-09T13:09:26.583Z,7.72
2016-12-09T13:10:35.278Z,7.74
2016-12-09T13:11:43.968Z,7.7
2016-12-09T13:12:52.664Z,7.62
2016-12-09T13:14:01.359Z,7.51
2016-12-09T13:15:10.053Z,7.47
2016-12-09T13:16:18.743Z,7.4
2016-12-09T13:17:27.435Z,7.43
2016-12-09T13:18:36.130Z,7.43
2016-12-09T13:19:44.848Z,7.36
2016-12-09T13:20:53.546Z,7.37
2016-12-09T13:22:02.237Z,7.41
2016-12-09T13:23:10.928Z,7.22
2016-12-09T13:24:19.622Z,7.22
2016-12-09T13:25:28.314Z,7.28
2016-12-09T13:26:37.003Z,7.23
2016-12-09T13:27:45.698Z,7.29
2016-12-09T13:28:54.392Z,7.26
2016-12-09T13:30:03.101Z,7.23
2016-12-09T13:31:11.794Z,7.23
2016-12-09T13:32:20.487Z,7.23
2016-12-09T13:33:29.207Z,7.21
2016-12-09T13:34:37.975Z,7.15
2016-12-09T13:35:46.666Z,7.13
2016-12-09T13:36:55.354Z,7.14
2016-12-09T13:38:04.048Z,7.05
2016-12-09T13:39:12.739Z,7.08
2016-12-09T13:40:21.430Z,7.1
2016-12-09T13:41:30.133Z,7.04
2016-12-09T13:42:38.828Z,7.01
2016-12-09T13:43:47.519Z,7.03
2016-12-09T13:44:56.210Z,7.05
2016-12-09T13:46:04.904Z,7.01
2016-12-09T13:47:13.614Z,7.03
2016-12-09T13:48:22.314Z,7.07
2016-12-09T13:49:31.010Z,7.04
2016-12-09T13:50:39.862Z,7.07
2016-12-09T13:51:48.561Z,6.92
2016-12-09T13:52:57.257Z,7.04
2016-12-09T13:54:05.953Z,6.89
2016-12-09T13:55:14.963Z,6.78
2016-12-09T13:56:23.670Z,6.77
2016-12-09T13:57:32.388Z,6.85
2016-12-09T13:58:41.084Z,6.75
2016-12-09T13:59:49.777Z,6.74
2016-12-09T14:00:58.473Z,6.6
2016-12-09T14:02:07.170Z,6.6
2016-12-09T14:03:15.866Z,6.68
2016-12-09T14:04:24.556Z,6.52
2016-12-09T14:05:33.255Z,6.53
2016-12-09T14:06:41.944Z,6.53
2016-12-09T14:07:50.632Z,6.5
2016-12-09T14:08:59.325Z,6.54
2016-12-09T14:10:08.019Z,6.53
2016-12-09T14:11:16.710Z,6.6
2016-12-09T14:12:25.404Z,6.7
2016-12-09T14:13:34.097Z,6.67
2016-12-09T14:14:42.792Z,6.72
2016-12-09T14:15:51.487Z,6.78
2016-12-09T14:17:00.181Z,6.6
2016-12-09T14:18:08.875Z,6.46
2016-12-09T14:19:17.571Z,6.39
2016-12-09T14:20:26.265Z,6.2
2016-12-09T14:21:34.961Z,6.05
2016-12-09T14:22:43.657Z,5.97
2016-12-09T14:23:52.350Z,5.87
2016-12-09T14:25:01.045Z,5.83
2016-12-09T14:26:09.738Z,5.77
2016-12-09T14:27:18.436Z,5.65
2016-12-09T14:28:27.131Z,5.61
2016-12-09T14:29:35.823Z,5.47
2016-12-09T14:30:44.524Z,5.33
2016-12-09T14:31:53.219Z,5.25
2016-12-09T14:33:01.916Z,5.2
2016-12-09T14:34:10.605Z,5.12
2016-12-09T14:35:19.295Z,5.01
2016-12-09T14:36:27.990Z,5.07
2016-12-09T14:37:36.684Z,5.2
2016-12-09T14:38:45.379Z,5.36
2016-12-09T14:39:54.126Z,5.46
2016-12-09T14:41:02.821Z,5.54
2016-12-09T14:42:11.517Z,5.54
2016-12-09T14:43:20.213Z,5.64
2016-12-09T14:44:28.905Z,5.74
2016-12-09T14:45:37.595Z,5.87
2016-12-09T14:46:46.298Z,5.95
2016-12-09T14:47:55.302Z,5.99
2016-12-09T14:49:03.993Z,6.13
2016-12-09T14:50:12.693Z,6.28
2016-12-09T14:51:21.389Z,6.26
2016-12-09T14:52:30.088Z,6.31
2016-12-09T14:53:38.781Z,6.35
2016-12-09T14:54:47.505Z,6.29
2016-12-09T14:55:56.211Z,6.17
2016-12-09T14:57:04.901Z,6.38
2016-12-09T14:58:13.587Z,6.34
2016-12-09T14:59:22.280Z,6.34
2016-12-09T15:00:30.966Z,6.38
2016-12-09T15:01:39.656Z,6.34
2016-12-09T15:02:48.344Z,6.41
2016-12-09T15:03:57.039Z,6.31
2016-12-09T15:05:05.756Z,6.38
2016-12-09T15:06:14.454Z,6.46
2016-12-09T15:07:23.150Z,6.56
2016-12-09T15:08:31.844Z,6.57
2016-12-09T15:09:40.537Z,6.59
2016-12-09T15:10:49.234Z,6.57
2016-12-09T15:11:57.931Z,6.59
2016-12-09T15:13:06.937Z,6.57
2016-12-09T15:14:15.626Z,6.52
2016-12-09T15:15:24.321Z,6.52
2016-12-09T15:16:33.045Z,6.44
2016-12-09T15:17:41.738Z,6.35